createdAt,value
2018-05-12T00:00:50.450Z,0
2018-05-12T00:01:51.019Z,0
2018-05-12T00:02:51.580Z,0
2018-05-12T00:03:52.119Z,0
2018-05-12T00:04:52.667Z,0
2018-05-12T00:05:53.273Z,0
2018-05-12T00:06:53.765Z,0
2018-05-12T00:07:54.305Z,0
2018-05-12T00:08:54.858Z,0
2018-05-12T00:09:55.398Z,0
2018-05-12T00:10:55.952Z,0
2018-05-12T00:11:56.497Z,0
2018-05-12T00:12:57.043Z,0
2018-05-12T00:13:57.584Z,0
2018-05-12T00:14:58.141Z,0
2018-05-12T00:15:58.678Z,0
2018-05-12T00:16:59.230Z,0
2018-05-12T00:17:59.778Z,0
2018-05-12T00:19:00.322Z,0
2018-05-12T00:20:00.868Z,0
2018-05-12T00:21:01.424Z,0
2018-05-12T00:22:01.968Z,0
2018-05-12T00:23:02.520Z,0
2018-05-12T00:24:03.066Z,0
2018-05-12T00:25:03.615Z,0
2018-05-12T00:26:04.164Z,0
2018-05-12T00:27:04.716Z,0
2018-05-12T00:28:05.262Z,0
2018-05-12T00:29:05.802Z,0
2018-05-12T00:30:06.349Z,0
2018-05-12T00:31:06.897Z,0
2018-05-12T00:32:07.452Z,0
2018-05-12T00:33:07.988Z,0
2018-05-12T00:34:08.541Z,0
2018-05-12T00:35:09.085Z,0
2018-05-12T00:36:09.632Z,0
2018-05-12T00:37:10.183Z,0
2018-05-12T00:38:10.730Z,0
2018-05-12T00:39:11.278Z,0
2018-05-12T00:40:11.830Z,0
2018-05-12T00:41:12.378Z,0
2018-05-12T00:42:12.926Z,0
2018-05-12T00:43:13.478Z,0
2018-05-12T00:44:14.019Z,0
2018-05-12T00:45:14.570Z,0
2018-05-12T00:46:15.114Z,0
2018-05-12T00:47:15.665Z,0
2018-05-12T00:48:16.215Z,0
2018-05-12T00:49:16.761Z,0
2018-05-12T00:50:17.306Z,0
2018-05-12T00:51:17.857Z,0
2018-05-12T00:52:18.396Z,0
2018-05-12T00:53:18.939Z,0
2018-05-12T00:54:19.486Z,0
2018-05-12T00:55:20.031Z,0
2018-05-12T00:56:20.579Z,0
2018-05-12T00:57:21.128Z,0
2018-05-12T00:58:21.677Z,0
2018-05-12T00:59:22.223Z,0
2018-05-12T01:00:22.770Z,0
2018-05-12T01:01:23.315Z,0
2018-05-12T01:02:23.870Z,0
2018-05-12T01:03:24.414Z,0
2018-05-12T01:04:24.962Z,0
2018-05-12T01:05:25.505Z,0
2018-05-12T01:06:26.057Z,0
2018-05-12T01:07:26.606Z,0
2018-05-12T01:08:27.152Z,0
2018-05-12T01:09:27.704Z,0
2018-05-12T01:10:28.253Z,0
2018-05-12T01:11:28.801Z,0
2018-05-12T01:12:29.349Z,0
2018-05-12T01:13:29.913Z,0
2018-05-12T01:14:30.439Z,0
2018-05-12T01:15:30.990Z,0
2018-05-12T01:16:31.543Z,0
2018-05-12T01:17:32.083Z,0
2018-05-12T01:18:32.625Z,0
2018-05-12T01:19:33.168Z,0
2018-05-12T01:20:33.714Z,0
2018-05-12T01:21:34.261Z,0
2018-05-12T01:22:34.813Z,0
2018-05-12T01:23:35.357Z,0
2018-05-12T01:24:35.905Z,0
2018-05-12T01:25:36.450Z,0
2018-05-12T01:26:36.998Z,0
2018-05-12T01:27:37.547Z,0
2018-05-12T01:28:38.096Z,0
2018-05-12T01:29:38.641Z,0
2018-05-12T01:30:39.191Z,0
2018-05-12T01:31:39.739Z,0
2018-05-12T01:32:40.287Z,0
2018-05-12T01:33:40.839Z,0
2018-05-12T01:34:41.388Z,0
2018-05-12T01:35:41.930Z,0
2018-05-12T01:36:42.483Z,0
2018-05-12T01:37:43.030Z,0
2018-05-12T01:38:43.577Z,0
2018-05-12T01:39:44.128Z,0
2018-05-12T01:40:44.674Z,0
2018-05-12T01:41:45.220Z,0
2018-05-12T01:42:45.766Z,0
2018-05-12T01:43:46.317Z,0
2018-05-12T01:44:46.866Z,0
2018-05-12T01:45:47.410Z,0
2018-05-12T01:46:47.963Z,0
2018-05-12T01:47:48.509Z,0
2018-05-12T01:48:49.057Z,0
2018-05-12T01:49:49.604Z,0
2018-05-12T01:50:50.152Z,0
2018-05-12T01:51:50.703Z,0
2018-05-12T01:52:51.247Z,0
2018-05-12T01:53:51.797Z,0
2018-05-12T01:54:52.347Z,0
2018-05-12T01:55:52.897Z,0
2018-05-12T01:56:53.447Z,0
2018-05-12T01:57:53.990Z,0
2018-05-12T01:58:54.532Z,0
2018-05-12T01:59:55.083Z,0
2018-05-12T02:00:55.633Z,0
2018-05-12T02:01:56.177Z,0
2018-05-12T02:02:56.722Z,0
2018-05-12T02:03:57.270Z,0
2018-05-12T02:04:57.818Z,0
2018-05-12T02:05:58.368Z,0
2018-05-12T02:06:58.911Z,0
2018-05-12T02:07:59.460Z,0
2018-05-12T02:09:00.014Z,0
2018-05-12T02:10:00.558Z,0
2018-05-12T02:11:01.103Z,0
2018-05-12T02:12:01.645Z,0
2018-05-12T02:13:02.213Z,0
2018-05-12T02:14:02.742Z,0
2018-05-12T02:15:03.289Z,0
2018-05-12T02:16:03.837Z,0
2018-05-12T02:17:04.385Z,0
2018-05-12T02:18:04.925Z,0
2018-05-12T02:19:05.473Z,0
2018-05-12T02:20:06.022Z,0
2018-05-12T02:21:06.568Z,0
2018-05-12T02:22:07.115Z,0
2018-05-12T02:23:07.661Z,0
2018-05-12T02:24:08.201Z,0
2018-05-12T02:25:08.752Z,0
2018-05-12T02:26:09.301Z,0
2018-05-12T02:27:09.849Z,0
2018-05-12T02:28:10.394Z,0
2018-05-12T02:29:10.938Z,0
2018-05-12T02:30:11.489Z,0
2018-05-12T02:31:12.041Z,0
2018-05-12T02:32:12.580Z,0
2018-05-12T02:33:13.130Z,0
2018-05-12T02:34:13.676Z,0
2018-05-12T02:35:14.220Z,0
2018-05-12T02:36:14.859Z,0
2018-05-12T02:37:15.313Z,0
2018-05-12T02:38:15.863Z,0
2018-05-12T02:39:16.412Z,0
2018-05-12T02:40:16.955Z,0
2018-05-12T02:41:17.497Z,0
2018-05-12T02:42:18.043Z,0
2018-05-12T02:43:18.580Z,0
2018-05-12T02:44:19.139Z,0
2018-05-12T02:45:19.683Z,0
2018-05-12T02:46:20.234Z,0
2018-05-12T02:47:20.779Z,0
2018-05-12T02:48:21.327Z,0
2018-05-12T02:49:21.875Z,0
2018-05-12T02:50:22.414Z,0
2018-05-12T02:51:22.963Z,0
2018-05-12T02:52:23.520Z,0
2018-05-12T02:53:24.065Z,0
2018-05-12T02:54:24.608Z,0
2018-05-12T02:55:25.154Z,0
2018-05-12T02:56:25.701Z,0
2018-05-12T02:57:26.250Z,0
2018-05-12T02:58:26.789Z,0
2018-05-12T02:59:27.335Z,0
2018-05-12T03:00:27.879Z,0
2018-05-12T03:01:28.424Z,0
2018-05-12T03:02:28.965Z,0
2018-05-12T03:03:29.513Z,0
2018-05-12T03:04:30.065Z,0
2018-05-12T03:05:30.610Z,0
2018-05-12T03:06:31.154Z,0
2018-05-12T03:07:31.698Z,0
2018-05-12T03:08:32.245Z,4
2018-05-12T03:09:32.797Z,4
2018-05-12T03:10:33.341Z,0
2018-05-12T03:11:33.886Z,0
2018-05-12T03:12:34.432Z,4
2018-05-12T03:13:34.978Z,4
2018-05-12T03:14:35.520Z,4
2018-05-12T03:15:36.130Z,4
2018-05-12T03:16:36.613Z,4
2018-05-12T03:17:37.158Z,8
2018-05-12T03:18:37.701Z,8
2018-05-12T03:19:38.251Z,12
2018-05-12T03:20:38.801Z,12
2018-05-12T03:21:39.349Z,12
2018-05-12T03:22:39.895Z,16
2018-05-12T03:23:40.445Z,16
2018-05-12T03:24:40.986Z,20
2018-05-12T03:25:41.540Z,24
2018-05-12T03:26:42.097Z,28
2018-05-12T03:27:42.633Z,32
2018-05-12T03:28:43.179Z,36
2018-05-12T03:29:43.723Z,44
2018-05-12T03:30:44.271Z,48
2018-05-12T03:31:44.824Z,56
2018-05-12T03:32:45.368Z,64
2018-05-12T03:33:45.918Z,72
2018-05-12T03:34:46.465Z,84
2018-05-12T03:35:47.013Z,96
2018-05-12T03:36:47.571Z,108
2018-05-12T03:37:48.121Z,124
2018-05-12T03:38:48.672Z,140
2018-05-12T03:39:49.217Z,160
2018-05-12T03:40:49.761Z,180
2018-05-12T03:41:50.309Z,200
2018-05-12T03:42:50.858Z,220
2018-05-12T03:43:51.404Z,248
2018-05-12T03:44:51.949Z,272
2018-05-12T03:45:52.500Z,300
2018-05-12T03:46:53.050Z,328
2018-05-12T03:47:53.597Z,356
2018-05-12T03:48:54.150Z,388
2018-05-12T03:49:54.699Z,416
2018-05-12T03:50:55.246Z,448
2018-05-12T03:51:55.797Z,476
2018-05-12T03:52:56.343Z,504
2018-05-12T03:53:56.895Z,536
2018-05-12T03:54:57.445Z,576
2018-05-12T03:55:57.994Z,620
2018-05-12T03:56:58.538Z,668
2018-05-12T03:57:59.089Z,716
2018-05-12T03:58:59.635Z,768
2018-05-12T04:00:00.193Z,820
2018-05-12T04:01:00.731Z,876
2018-05-12T04:02:01.277Z,932
2018-05-12T04:03:01.829Z,992
2018-05-12T04:04:02.378Z,1048
2018-05-12T04:05:02.935Z,1112
2018-05-12T04:06:03.481Z,1172
2018-05-12T04:07:04.032Z,1240
2018-05-12T04:08:04.587Z,1304
2018-05-12T04:09:05.136Z,1364
2018-05-12T04:10:05.684Z,1428
2018-05-12T04:11:06.237Z,1496
2018-05-12T04:12:06.789Z,1560
2018-05-12T04:13:07.337Z,1620
2018-05-12T04:14:07.883Z,1664
2018-05-12T04:15:08.435Z,1704
2018-05-12T04:16:08.994Z,1772
2018-05-12T04:17:09.542Z,1856
2018-05-12T04:18:10.093Z,1936
2018-05-12T04:19:10.645Z,1992
2018-05-12T04:20:11.200Z,2044
2018-05-12T04:21:11.751Z,2096
2018-05-12T04:22:12.304Z,2176
2018-05-12T04:23:12.854Z,2236
2018-05-12T04:24:13.405Z,2276
2018-05-12T04:25:13.958Z,2284
2018-05-12T04:26:14.510Z,2316
2018-05-12T04:27:15.055Z,2356
2018-05-12T04:28:15.606Z,2376
2018-05-12T04:29:16.163Z,2400
2018-05-12T04:30:16.713Z,2472
2018-05-12T04:31:17.268Z,2580
2018-05-12T04:32:17.817Z,2708
2018-05-12T04:33:18.369Z,2776
2018-05-12T04:34:18.918Z,2896
2018-05-12T04:35:19.464Z,3036
2018-05-12T04:36:20.018Z,3148
2018-05-12T04:37:20.563Z,3280
2018-05-12T04:38:21.124Z,3396
2018-05-12T04:39:21.679Z,3440
2018-05-12T04:40:22.232Z,3504
2018-05-12T04:41:22.781Z,3500
2018-05-12T04:42:23.329Z,3524
2018-05-12T04:43:23.953Z,3680
2018-05-12T04:44:24.438Z,3820
2018-05-12T04:45:24.988Z,3912
2018-05-12T04:46:25.541Z,3916
2018-05-12T04:47:26.089Z,4032
2018-05-12T04:48:26.640Z,4228
2018-05-12T04:49:27.191Z,4288
2018-05-12T04:50:27.748Z,4404
2018-05-12T04:51:28.304Z,4576
2018-05-12T04:52:28.857Z,4676
2018-05-12T04:53:29.414Z,4720
2018-05-12T04:54:29.967Z,5056
2018-05-12T04:55:30.524Z,5296
2018-05-12T04:56:31.071Z,5288
2018-05-12T04:57:31.627Z,5304
2018-05-12T04:58:32.186Z,5440
2018-05-12T04:59:32.740Z,5556
2018-05-12T05:00:33.290Z,5780
2018-05-12T05:01:33.846Z,6064
2018-05-12T05:02:34.397Z,6540
2018-05-12T05:03:34.955Z,7496
2018-05-12T05:04:35.501Z,8404
2018-05-12T05:05:36.053Z,8936
2018-05-12T05:06:36.603Z,9436
2018-05-12T05:07:37.156Z,9672
2018-05-12T05:08:37.712Z,9816
2018-05-12T05:09:38.271Z,9964
2018-05-12T05:10:38.824Z,10340
2018-05-12T05:11:39.379Z,10520
2018-05-12T05:12:39.936Z,10544
2018-05-12T05:13:40.495Z,10936
2018-05-12T05:14:41.050Z,11016
2018-05-12T05:15:41.614Z,11312
2018-05-12T05:16:42.168Z,11768
2018-05-12T05:17:42.732Z,12028
2018-05-12T05:18:43.292Z,12316
2018-05-12T05:19:43.855Z,12504
2018-05-12T05:20:44.416Z,12592
2018-05-12T05:21:44.978Z,12836
2018-05-12T05:22:45.539Z,13056
2018-05-12T05:23:46.101Z,13356
2018-05-12T05:24:46.661Z,12628
2018-05-12T05:25:47.226Z,10600
2018-05-12T05:26:47.788Z,9156
2018-05-12T05:27:48.353Z,9184
2018-05-12T05:28:48.915Z,9284
2018-05-12T05:29:49.470Z,9580
2018-05-12T05:30:50.032Z,10016
2018-05-12T05:31:50.595Z,11060
2018-05-12T05:32:51.152Z,11832
2018-05-12T05:33:51.711Z,12720
2018-05-12T05:34:52.273Z,13604
2018-05-12T05:35:52.835Z,14396
2018-05-12T05:36:53.401Z,15028
2018-05-12T05:37:53.990Z,15972
2018-05-12T05:38:54.524Z,17052
2018-05-12T05:39:55.085Z,16420
2018-05-12T05:40:55.644Z,13472
2018-05-12T05:41:56.203Z,11656
2018-05-12T05:42:56.776Z,14248
2018-05-12T05:43:57.348Z,17728
2018-05-12T05:44:57.897Z,19680
2018-05-12T05:45:58.464Z,20448
2018-05-12T05:46:59.032Z,20160
2018-05-12T05:47:59.599Z,18144
2018-05-12T05:49:00.164Z,20736
2018-05-12T05:50:00.733Z,21184
2018-05-12T05:51:01.296Z,21024
2018-05-12T05:52:01.865Z,21440
2018-05-12T05:53:02.432Z,22144
2018-05-12T05:54:03.002Z,22176
2018-05-12T05:55:03.570Z,22816
2018-05-12T05:56:04.138Z,20704
2018-05-12T05:57:04.709Z,18048
2018-05-12T05:58:05.279Z,16224
2018-05-12T05:59:05.844Z,17756
2018-05-12T06:00:06.408Z,20704
2018-05-12T06:01:06.974Z,22752
2018-05-12T06:02:07.545Z,24992
2018-05-12T06:03:08.106Z,25024
2018-05-12T06:04:08.674Z,26272
2018-05-12T06:05:09.243Z,25344
2018-05-12T06:06:09.814Z,25728
2018-05-12T06:07:10.473Z,26336
2018-05-12T06:08:10.947Z,27104
2018-05-12T06:09:11.511Z,26816
2018-05-12T06:10:12.073Z,28480
2018-05-12T06:11:12.641Z,28160
2018-05-12T06:12:13.221Z,24512
2018-05-12T06:13:13.774Z,25184
2018-05-12T06:14:14.343Z,24960
2018-05-12T06:15:14.914Z,25600
2018-05-12T06:16:15.481Z,25792
2018-05-12T06:17:16.046Z,26432
2018-05-12T06:18:16.615Z,29504
2018-05-12T06:19:17.182Z,28576
2018-05-12T06:20:17.751Z,28672
2018-05-12T06:21:18.325Z,30528
2018-05-12T06:22:18.892Z,31744
2018-05-12T06:23:19.467Z,32928
2018-05-12T06:24:20.115Z,31680
2018-05-12T06:25:20.595Z,33440
2018-05-12T06:26:21.167Z,31488
2018-05-12T06:27:21.731Z,31680
2018-05-12T06:28:22.299Z,36288
2018-05-12T06:29:22.868Z,33472
2018-05-12T06:30:23.441Z,31296
2018-05-12T06:31:24.011Z,29824
2018-05-12T06:32:24.578Z,33056
2018-05-12T06:33:25.149Z,34176
2018-05-12T06:34:25.722Z,34880
2018-05-12T06:35:26.285Z,30080
2018-05-12T06:36:26.859Z,32448
2018-05-12T06:37:27.425Z,26816
2018-05-12T06:38:27.998Z,28416
2018-05-12T06:39:28.562Z,28480
2018-05-12T06:40:29.134Z,22816
2018-05-12T06:41:29.701Z,24896
2018-05-12T06:42:30.273Z,27968
2018-05-12T06:43:30.841Z,31328
2018-05-12T06:44:31.417Z,30016
2018-05-12T06:45:31.978Z,31712
2018-05-12T06:46:32.550Z,34720
2018-05-12T06:47:33.117Z,36288
2018-05-12T06:48:33.686Z,36896
2018-05-12T06:49:34.257Z,34432
2018-05-12T06:50:34.822Z,36768
2018-05-12T06:51:35.386Z,31744
2018-05-12T06:52:35.956Z,34464
2018-05-12T06:53:36.526Z,30656
2018-05-12T06:54:37.095Z,30624
2018-05-12T06:55:37.664Z,25376
2018-05-12T06:56:38.228Z,25344
2018-05-12T06:57:38.799Z,30880
2018-05-12T06:58:39.369Z,35008
2018-05-12T06:59:39.934Z,36416
2018-05-12T07:00:40.507Z,39872
2018-05-12T07:01:41.073Z,36192
2018-05-12T07:02:41.643Z,35616
2018-05-12T07:03:42.209Z,38720
2018-05-12T07:04:42.773Z,38528
2018-05-12T07:05:43.341Z,35360
2018-05-12T07:06:43.913Z,36000
2018-05-12T07:07:44.483Z,35712
2018-05-12T07:08:45.058Z,36096
2018-05-12T07:09:45.624Z,38048
2018-05-12T07:10:46.193Z,40192
2018-05-12T07:11:46.761Z,44736
2018-05-12T07:12:47.338Z,44608
2018-05-12T07:13:47.899Z,46144
2018-05-12T07:14:48.466Z,46592
2018-05-12T07:15:49.037Z,50080
2018-05-12T07:16:49.609Z,53440
2018-05-12T07:17:50.184Z,54464
2018-05-12T07:18:50.753Z,50784
2018-05-12T07:19:51.328Z,52160
2018-05-12T07:20:51.903Z,49120
2018-05-12T07:21:52.475Z,47168
2018-05-12T07:22:53.043Z,46336
2018-05-12T07:23:53.615Z,45760
2018-05-12T07:24:54.185Z,39104
2018-05-12T07:25:54.756Z,44288
2018-05-12T07:26:55.329Z,45152
2018-05-12T07:27:55.901Z,44704
2018-05-12T07:28:56.476Z,41888
2018-05-12T07:29:57.053Z,40096
2018-05-12T07:30:57.624Z,29600
2018-05-12T07:31:58.199Z,47136
2018-05-12T07:32:58.766Z,56992
2018-05-12T07:33:59.338Z,55104
2018-05-12T07:34:59.909Z,52896
2018-05-12T07:36:00.477Z,45152
2018-05-12T07:37:01.045Z,44992
2018-05-12T07:38:01.622Z,48448
2018-05-12T07:39:02.242Z,58560
2018-05-12T07:40:02.760Z,57248
2018-05-12T07:41:03.327Z,48032
2018-05-12T07:42:03.903Z,43840
2018-05-12T07:43:04.474Z,42528
2018-05-12T07:44:05.042Z,49280
2018-05-12T07:45:05.630Z,51200
2018-05-12T07:46:06.193Z,42496
2018-05-12T07:47:06.754Z,45248
2018-05-12T07:48:07.329Z,45856
2018-05-12T07:49:07.902Z,48320
2018-05-12T07:50:08.471Z,47808
2018-05-12T07:51:09.035Z,50304
2018-05-12T07:52:09.607Z,56576
2018-05-12T07:53:10.177Z,52608
2018-05-12T07:54:10.750Z,52064
2018-05-12T07:55:11.325Z,50112
2018-05-12T07:56:11.891Z,51232
2018-05-12T07:57:12.462Z,46784
2018-05-12T07:58:13.037Z,58080
2018-05-12T07:59:13.613Z,66496
2018-05-12T08:00:14.256Z,63840
2018-05-12T08:01:14.745Z,61792
2018-05-12T08:02:15.315Z,56032
2018-05-12T08:03:15.886Z,55808
2018-05-12T08:04:16.461Z,48640
2018-05-12T08:05:17.035Z,59264
2018-05-12T08:06:17.602Z,64864
2018-05-12T08:07:18.169Z,63744
2018-05-12T08:08:18.738Z,63264
2018-05-12T08:09:19.310Z,59168
2018-05-12T08:10:19.883Z,59040
2018-05-12T08:11:20.454Z,55040
2018-05-12T08:12:21.025Z,59456
2018-05-12T08:13:21.591Z,67424
2018-05-12T08:14:22.160Z,66368
2018-05-12T08:15:22.733Z,65024
2018-05-12T08:16:23.297Z,63232
2018-05-12T08:17:23.868Z,64768
2018-05-12T08:18:24.439Z,66048
2018-05-12T08:19:25.016Z,73376
2018-05-12T08:20:25.583Z,76000
2018-05-12T08:21:26.153Z,68416
2018-05-12T08:22:26.743Z,62624
2018-05-12T08:23:27.293Z,50528
2018-05-12T08:24:27.865Z,54656
2018-05-12T08:25:28.439Z,56864
2018-05-12T08:26:29.011Z,56960
2018-05-12T08:27:29.582Z,64800
2018-05-12T08:28:30.157Z,69888
2018-05-12T08:29:30.730Z,71904
2018-05-12T08:30:31.297Z,73728
2018-05-12T08:31:31.907Z,77216
2018-05-12T08:32:32.443Z,76000
2018-05-12T08:33:33.015Z,71232
2018-05-12T08:34:33.591Z,66752
2018-05-12T08:35:34.166Z,66560
2018-05-12T08:36:34.734Z,58848
2018-05-12T08:37:35.300Z,64064
2018-05-12T08:38:35.868Z,61760
2018-05-12T08:39:36.466Z,64832
2018-05-12T08:40:37.007Z,67680
2018-05-12T08:41:37.574Z,66400
2018-05-12T08:42:38.142Z,67520
2018-05-12T08:43:38.715Z,64096
2018-05-12T08:44:39.289Z,60192
2018-05-12T08:45:39.861Z,59520
2018-05-12T08:46:40.431Z,59968
2018-05-12T08:47:41.024Z,63392
2018-05-12T08:48:41.569Z,69920
2018-05-12T08:49:42.144Z,71840
2018-05-12T08:50:42.712Z,63552
2018-05-12T08:51:43.283Z,63264
2018-05-12T08:52:43.854Z,63744
2018-05-12T08:54:59.885Z,63520
2018-05-12T08:56:00.459Z,66720
2018-05-12T08:57:01.032Z,69728
2018-05-12T08:58:01.602Z,66304
2018-05-12T08:59:02.170Z,72256
2018-05-12T09:00:02.747Z,74528
2018-05-12T09:01:03.316Z,74240
2018-05-12T09:02:03.887Z,74688
2018-05-12T09:03:04.462Z,74912
2018-05-12T09:04:05.027Z,74144
2018-05-12T09:05:05.593Z,68000
2018-05-12T09:06:06.167Z,67424
2018-05-12T09:07:06.741Z,70464
2018-05-12T09:08:07.304Z,72416
2018-05-12T09:09:07.882Z,66272
2018-05-12T09:10:08.446Z,71200
2018-05-12T09:11:09.012Z,73824
2018-05-12T09:12:09.577Z,79936
2018-05-12T09:13:10.150Z,81728
2018-05-12T09:14:10.726Z,80480
2018-05-12T09:15:11.296Z,74112
2018-05-12T09:16:11.869Z,73504
2018-05-12T09:17:12.439Z,76416
2018-05-12T09:18:13.006Z,78496
2018-05-12T09:19:13.662Z,74944
2018-05-12T09:20:14.139Z,79104
2018-05-12T09:21:14.710Z,83808
2018-05-12T09:22:15.280Z,84544
2018-05-12T09:23:15.867Z,83040
2018-05-12T09:24:16.430Z,83488
2018-05-12T09:25:17.005Z,73696
2018-05-12T09:26:17.572Z,73248
2018-05-12T09:27:18.144Z,79616
2018-05-12T09:28:18.719Z,85024
2018-05-12T09:29:19.294Z,87872
2018-05-12T09:30:19.864Z,86496
2018-05-12T09:31:20.430Z,88000
2018-05-12T09:32:21.002Z,87104
2018-05-12T09:33:21.577Z,85728
2018-05-12T09:34:22.148Z,79232
2018-05-12T09:35:22.721Z,84480
2018-05-12T09:36:23.301Z,86432
2018-05-12T09:37:23.870Z,85504
2018-05-12T09:38:24.442Z,85760
2018-05-12T09:39:25.014Z,80352
2018-05-12T09:40:25.586Z,82688
2018-05-12T09:41:26.155Z,78272
2018-05-12T09:42:26.847Z,83584
2018-05-12T09:43:27.287Z,74400
2018-05-12T09:44:27.854Z,69152
2018-05-12T09:45:28.428Z,54944
2018-05-12T09:46:29.002Z,52960
2018-05-12T09:47:29.566Z,48704
2018-05-12T09:48:30.139Z,49824
2018-05-12T09:49:30.706Z,62112
2018-05-12T09:50:31.274Z,70368
2018-05-12T09:51:31.841Z,72000
2018-05-12T09:52:32.411Z,68992
2018-05-12T09:53:32.980Z,68928
2018-05-12T09:54:33.551Z,69600
2018-05-12T09:55:34.119Z,70720
2018-05-12T09:56:34.692Z,68896
2018-05-12T09:57:35.259Z,66592
2018-05-12T09:58:35.830Z,69888
2018-05-12T09:59:36.450Z,71680
2018-05-12T10:00:36.963Z,76096
2018-05-12T10:01:37.538Z,74176
2018-05-12T10:02:38.106Z,71488
2018-05-12T10:03:38.674Z,72288
2018-05-12T10:04:39.240Z,78464
2018-05-12T10:05:39.809Z,69248
2018-05-12T10:06:40.377Z,89824
2018-05-12T10:07:40.947Z,86496
2018-05-12T10:08:41.514Z,82528
2018-05-12T10:09:42.205Z,85184
2018-05-12T10:10:42.645Z,83840
2018-05-12T10:11:43.215Z,83008
2018-05-12T10:12:43.841Z,79840
2018-05-12T10:13:44.354Z,75776
2018-05-12T10:14:44.924Z,78048
2018-05-12T10:15:45.493Z,83552
2018-05-12T10:16:46.062Z,82176
2018-05-12T10:17:46.629Z,83232
2018-05-12T10:18:47.197Z,83136
2018-05-12T10:19:47.774Z,78944
2018-05-12T10:20:48.367Z,77760
2018-05-12T10:21:48.908Z,75840
2018-05-12T10:22:49.478Z,82336
2018-05-12T10:23:50.051Z,86016
2018-05-12T10:24:50.620Z,87744
2018-05-12T10:25:51.181Z,86816
2018-05-12T10:26:51.745Z,79392
2018-05-12T10:27:52.315Z,75712
2018-05-12T10:28:52.887Z,76160
2018-05-12T10:29:53.459Z,78432
2018-05-12T10:30:54.031Z,81728
2018-05-12T10:31:54.598Z,80160
2018-05-12T10:32:55.167Z,78944
2018-05-12T10:33:55.733Z,77344
2018-05-12T10:34:56.301Z,79104
2018-05-12T10:35:56.874Z,77632
2018-05-12T10:36:57.439Z,76224
2018-05-12T10:37:58.010Z,73216
2018-05-12T10:38:58.651Z,83232
2018-05-12T10:39:59.144Z,84192
2018-05-12T10:40:59.715Z,83040
2018-05-12T10:42:00.280Z,80800
2018-05-12T10:43:00.851Z,74816
2018-05-12T10:44:01.417Z,84704
2018-05-12T10:45:01.988Z,84512
2018-05-12T10:46:02.557Z,84000
2018-05-12T10:47:03.124Z,78848
2018-05-12T10:48:03.697Z,73696
2018-05-12T10:49:04.269Z,84480
2018-05-12T10:50:04.836Z,87456
2018-05-12T10:51:05.408Z,85120
2018-05-12T10:52:05.981Z,69024
2018-05-12T10:53:06.551Z,69760
2018-05-12T10:54:07.124Z,67008
2018-05-12T10:55:07.690Z,68800
2018-05-12T10:56:08.259Z,80896
2018-05-12T10:57:08.832Z,78464
2018-05-12T10:58:09.399Z,81216
2018-05-12T10:59:09.978Z,80640
2018-05-12T11:00:10.538Z,83328
2018-05-12T11:01:11.106Z,86112
2018-05-12T11:02:11.677Z,83744
2018-05-12T11:03:12.244Z,83936
2018-05-12T11:04:12.809Z,86976
2018-05-12T11:05:13.372Z,84992
2018-05-12T11:06:13.939Z,82592
2018-05-12T11:07:14.505Z,72384
2018-05-12T11:08:15.146Z,70976
2018-05-12T11:09:15.640Z,77184
2018-05-12T11:10:16.212Z,71456
2018-05-12T11:11:16.784Z,74656
2018-05-12T11:12:17.351Z,91584
2018-05-12T11:13:17.922Z,83808
2018-05-12T11:14:18.489Z,81888
2018-05-12T11:15:19.059Z,81664
2018-05-12T11:16:19.628Z,79040
2018-05-12T11:17:20.193Z,85824
2018-05-12T11:18:20.765Z,90176
2018-05-12T11:19:21.331Z,84960
2018-05-12T11:20:22.022Z,70016
2018-05-12T11:21:22.463Z,79200
2018-05-12T11:22:23.032Z,79040
2018-05-12T11:23:23.609Z,76672
2018-05-12T11:24:24.173Z,68448
2018-05-12T11:25:24.744Z,68992
2018-05-12T11:26:25.321Z,67872
2018-05-12T11:27:25.885Z,67840
2018-05-12T11:28:26.455Z,73632
2018-05-12T11:29:27.020Z,74560
2018-05-12T11:30:27.588Z,73728
2018-05-12T11:31:28.159Z,78432
2018-05-12T11:32:28.730Z,77472
2018-05-12T11:33:29.300Z,72256
2018-05-12T11:34:29.875Z,70592
2018-05-12T11:35:30.447Z,69248
2018-05-12T11:36:31.023Z,71808
2018-05-12T11:37:31.587Z,69440
2018-05-12T11:38:32.154Z,72800
2018-05-12T11:39:32.725Z,70944
2018-05-12T11:40:33.299Z,70592
2018-05-12T11:41:33.874Z,66624
2018-05-12T11:42:34.442Z,67072
2018-05-12T11:43:35.019Z,69120
2018-05-12T11:44:35.647Z,76672
2018-05-12T11:45:36.159Z,69632
2018-05-12T11:46:36.734Z,80480
2018-05-12T11:47:37.302Z,79872
2018-05-12T11:48:37.867Z,77184
2018-05-12T11:49:38.435Z,74432
2018-05-12T11:50:39.008Z,72576
2018-05-12T11:51:39.574Z,76928
2018-05-12T11:52:40.147Z,83648
2018-05-12T11:53:40.716Z,85344
2018-05-12T11:54:41.298Z,77024
2018-05-12T11:55:41.858Z,78880
2018-05-12T11:56:42.429Z,78016
2018-05-12T11:57:42.995Z,80512
2018-05-12T11:58:43.568Z,80736
2018-05-12T11:59:44.134Z,75808
2018-05-12T12:00:44.705Z,75616
2018-05-12T12:01:45.278Z,74336
2018-05-12T12:02:45.845Z,77248
2018-05-12T12:03:46.521Z,79776
2018-05-12T12:04:46.989Z,73120
2018-05-12T12:05:47.556Z,67008
2018-05-12T12:06:48.129Z,69440
2018-05-12T12:07:48.693Z,70400
2018-05-12T12:08:49.260Z,79200
2018-05-12T12:09:49.828Z,82432
2018-05-12T12:10:50.393Z,88128
2018-05-12T12:11:50.957Z,92480
2018-05-12T12:12:51.531Z,94624
2018-05-12T12:13:52.098Z,88800
2018-05-12T12:14:52.670Z,100480
2018-05-12T12:15:53.247Z,100000
2018-05-12T12:16:53.812Z,96928
2018-05-12T12:17:54.376Z,93184
2018-05-12T12:18:54.946Z,88832
2018-05-12T12:19:55.517Z,78304
2018-05-12T12:20:56.090Z,75360
2018-05-12T12:21:56.662Z,78688
2018-05-12T12:22:57.230Z,79424
2018-05-12T12:23:57.803Z,86240
2018-05-12T12:24:58.376Z,94336
2018-05-12T12:25:58.950Z,99488
2018-05-12T12:26:59.512Z,98528
2018-05-12T12:28:00.083Z,97728
2018-05-12T12:29:00.659Z,91552
2018-05-12T12:30:01.228Z,84800
2018-05-12T12:31:01.801Z,90976
2018-05-12T12:32:02.376Z,85440
2018-05-12T12:33:02.950Z,83872
2018-05-12T12:34:03.514Z,80576
2018-05-12T12:35:04.078Z,89728
2018-05-12T12:36:04.647Z,86560
2018-05-12T12:37:05.220Z,95232
2018-05-12T12:38:05.794Z,97760
2018-05-12T12:39:06.363Z,100416
2018-05-12T12:40:06.929Z,93920
2018-05-12T12:41:07.497Z,98080
2018-05-12T12:42:08.067Z,94496
2018-05-12T12:43:08.636Z,97504
2018-05-12T12:44:09.202Z,96896
2018-05-12T12:45:09.813Z,93952
2018-05-12T12:46:10.342Z,89152
2018-05-12T12:47:10.917Z,76192
2018-05-12T12:48:11.489Z,85632
2018-05-12T12:49:12.061Z,71232
2018-05-12T12:50:12.627Z,79040
2018-05-12T12:51:13.194Z,92224
2018-05-12T12:52:13.770Z,92960
2018-05-12T12:53:14.344Z,87072
2018-05-12T12:54:14.917Z,89440
2018-05-12T12:55:15.496Z,95424
2018-05-12T12:56:16.063Z,91392
2018-05-12T12:57:16.638Z,82304
2018-05-12T12:58:17.207Z,82176
2018-05-12T12:59:17.776Z,89952
2018-05-12T13:00:18.346Z,88288
2018-05-12T13:01:18.926Z,90112
2018-05-12T13:02:19.493Z,83776
2018-05-12T13:03:20.067Z,88640
2018-05-12T13:04:20.644Z,77184
2018-05-12T13:05:21.217Z,82720
2018-05-12T13:06:21.782Z,83872
2018-05-12T13:07:22.347Z,81760
2018-05-12T13:08:22.923Z,78560
2018-05-12T13:09:23.552Z,79648
2018-05-12T13:10:24.064Z,76416
2018-05-12T13:11:24.641Z,82624
2018-05-12T13:12:25.201Z,82016
2018-05-12T13:13:25.773Z,67072
2018-05-12T13:14:26.366Z,63520
2018-05-12T13:15:26.905Z,72384
2018-05-12T13:16:27.480Z,70944
2018-05-12T13:17:28.049Z,75392
2018-05-12T13:18:28.623Z,78400
2018-05-12T13:19:29.193Z,76576
2018-05-12T13:20:29.755Z,76480
2018-05-12T13:21:30.326Z,79424
2018-05-12T13:22:30.897Z,83296
2018-05-12T13:23:31.465Z,81600
2018-05-12T13:24:32.040Z,72608
2018-05-12T13:25:32.603Z,70464
2018-05-12T13:26:33.170Z,64224
2018-05-12T13:27:33.742Z,59104
2018-05-12T13:28:34.305Z,58688
2018-05-12T13:29:34.877Z,58176
2018-05-12T13:30:35.444Z,59648
2018-05-12T13:31:36.020Z,60992
2018-05-12T13:32:36.590Z,59200